GB-0527 weather

Metropolitan Police Air Support Unit
England, United Kingdom

Public forecast

Using degrees Celsius for public forecast. Weather courtesy of forecast.io.

METAR (pilot weather report)

Closest report is London City Airport, 9.0 nm (16.7 km) S. Retrieved 2019/03/23 16:20 UTC (37 minutes ago):

EGLC 231620Z AUTO 10009KT 9999 NCD 12/06 Q1032

TAF (pilot weather forecast)

Forecast is more than 12 hours old.

Closest forecast is London City Airport, 9.0 nm (16.7 km) S. Retrieved 2018/10/15 21:30 UTC (5 months ago):

TAF EGLC 152119Z 1521/1621 CNL